sensor_id;sensor_type;location;lat;lon;timestamp;P1;durP1;ratioP1;P2;durP2;ratioP2
21519;SDS011;10921;53.614;9.882;2023-07-31T00:01:12;28.17;;;25.42;;
21519;SDS011;10921;53.614;9.882;2023-07-31T00:03:39;29.42;;;26.02;;
21519;SDS011;10921;53.614;9.882;2023-07-31T00:06:05;28.67;;;25.55;;
21519;SDS011;10921;53.614;9.882;2023-07-31T00:08:32;27.77;;;24.90;;
21519;SDS011;10921;53.614;9.882;2023-07-31T00:10:58;28.33;;;25.20;;
21519;SDS011;10921;53.614;9.882;2023-07-31T00:13:25;29.00;;;24.38;;
21519;SDS011;10921;53.614;9.882;2023-07-31T00:15:51;31.42;;;23.42;;
21519;SDS011;10921;53.614;9.882;2023-07-31T00:18:18;26.15;;;23.17;;
21519;SDS011;10921;53.614;9.882;2023-07-31T00:20:44;25.45;;;22.67;;
21519;SDS011;10921;53.614;9.882;2023-07-31T00:23:11;25.50;;;22.52;;
21519;SDS011;10921;53.614;9.882;2023-07-31T00:25:37;28.95;;;23.08;;
21519;SDS011;10921;53.614;9.882;2023-07-31T00:28:04;24.58;;;22.15;;
21519;SDS011;10921;53.614;9.882;2023-07-31T00:30:31;24.38;;;21.60;;
21519;SDS011;10921;53.614;9.882;2023-07-31T00:32:58;24.08;;;21.55;;
21519;SDS011;10921;53.614;9.882;2023-07-31T00:35:24;23.50;;;20.73;;
21519;SDS011;10921;53.614;9.882;2023-07-31T00:37:51;25.02;;;20.98;;
21519;SDS011;10921;53.614;9.882;2023-07-31T00:40:17;25.65;;;20.50;;
21519;SDS011;10921;53.614;9.882;2023-07-31T00:42:44;22.75;;;20.42;;
21519;SDS011;10921;53.614;9.882;2023-07-31T00:45:10;23.80;;;20.65;;
21519;SDS011;10921;53.614;9.882;2023-07-31T00:47:37;21.75;;;19.17;;
21519;SDS011;10921;53.614;9.882;2023-07-31T00:50:04;23.20;;;18.73;;
21519;SDS011;10921;53.614;9.882;2023-07-31T00:52:31;22.48;;;18.30;;
21519;SDS011;10921;53.614;9.882;2023-07-31T00:54:58;22.48;;;18.05;;
21519;SDS011;10921;53.614;9.882;2023-07-31T00:57:25;20.92;;;17.50;;
21519;SDS011;10921;53.614;9.882;2023-07-31T00:59:52;18.92;;;17.00;;
21519;SDS011;10921;53.614;9.882;2023-07-31T01:02:18;18.73;;;16.75;;
21519;SDS011;10921;53.614;9.882;2023-07-31T01:04:45;22.20;;;16.88;;
21519;SDS011;10921;53.614;9.882;2023-07-31T01:12:34;22.60;;;16.23;;
21519;SDS011;10921;53.614;9.882;2023-07-31T01:15:04;19.27;;;15.98;;
21519;SDS011;10921;53.614;9.882;2023-07-31T01:17:32;21.48;;;15.30;;
21519;SDS011;10921;53.614;9.882;2023-07-31T01:19:59;18.45;;;14.82;;
21519;SDS011;10921;53.614;9.882;2023-07-31T01:25:29;18.23;;;14.07;;
21519;SDS011;10921;53.614;9.882;2023-07-31T01:28:03;15.80;;;14.05;;
21519;SDS011;10921;53.614;9.882;2023-07-31T01:30:34;22.98;;;13.63;;
21519;SDS011;10921;53.614;9.882;2023-07-31T01:33:06;17.35;;;12.70;;
21519;SDS011;10921;53.614;9.882;2023-07-31T01:35:34;26.48;;;13.50;;
21519;SDS011;10921;53.614;9.882;2023-07-31T01:38:02;18.77;;;13.02;;
21519;SDS011;10921;53.614;9.882;2023-07-31T01:40:30;18.65;;;12.43;;
21519;SDS011;10921;53.614;9.882;2023-07-31T01:42:57;21.38;;;13.05;;
21519;SDS011;10921;53.614;9.882;2023-07-31T01:45:23;19.65;;;13.25;;
21519;SDS011;10921;53.614;9.882;2023-07-31T01:47:50;16.13;;;12.80;;
21519;SDS011;10921;53.614;9.882;2023-07-31T01:50:16;18.60;;;12.73;;
21519;SDS011;10921;53.614;9.882;2023-07-31T01:52:43;18.80;;;13.10;;
21519;SDS011;10921;53.614;9.882;2023-07-31T01:55:09;24.52;;;12.45;;
21519;SDS011;10921;53.614;9.882;2023-07-31T01:57:36;16.60;;;12.38;;
21519;SDS011;10921;53.614;9.882;2023-07-31T02:00:03;15.10;;;12.25;;
21519;SDS011;10921;53.614;9.882;2023-07-31T02:02:31;17.40;;;12.10;;
21519;SDS011;10921;53.614;9.882;2023-07-31T02:04:58;16.38;;;11.50;;
21519;SDS011;10921;53.614;9.882;2023-07-31T02:07:24;20.08;;;11.85;;
21519;SDS011;10921;53.614;9.882;2023-07-31T02:09:51;17.02;;;11.88;;
21519;SDS011;10921;53.614;9.882;2023-07-31T02:12:17;15.77;;;12.85;;
21519;SDS011;10921;53.614;9.882;2023-07-31T02:14:44;15.57;;;12.00;;
21519;SDS011;10921;53.614;9.882;2023-07-31T02:17:11;19.65;;;12.38;;
21519;SDS011;10921;53.614;9.882;2023-07-31T02:19:37;22.65;;;12.68;;
21519;SDS011;10921;53.614;9.882;2023-07-31T02:22:04;20.50;;;12.43;;
21519;SDS011;10921;53.614;9.882;2023-07-31T02:24:31;16.02;;;11.93;;
21519;SDS011;10921;53.614;9.882;2023-07-31T02:26:58;21.48;;;13.13;;
21519;SDS011;10921;53.614;9.882;2023-07-31T02:29:24;14.38;;;11.75;;
21519;SDS011;10921;53.614;9.882;2023-07-31T02:31:51;20.98;;;12.18;;
21519;SDS011;10921;53.614;9.882;2023-07-31T02:34:17;19.63;;;12.57;;
21519;SDS011;10921;53.614;9.882;2023-07-31T02:36:44;17.60;;;11.50;;
21519;SDS011;10921;53.614;9.882;2023-07-31T02:39:10;17.42;;;11.63;;
21519;SDS011;10921;53.614;9.882;2023-07-31T02:41:37;16.45;;;11.23;;
21519;SDS011;10921;53.614;9.882;2023-07-31T02:44:03;20.38;;;12.15;;
21519;SDS011;10921;53.614;9.882;2023-07-31T02:46:30;17.08;;;11.68;;
21519;SDS011;10921;53.614;9.882;2023-07-31T02:48:57;13.77;;;11.38;;
21519;SDS011;10921;53.614;9.882;2023-07-31T02:51:24;20.33;;;12.50;;
21519;SDS011;10921;53.614;9.882;2023-07-31T02:53:50;13.45;;;11.10;;
21519;SDS011;10921;53.614;9.882;2023-07-31T02:56:17;13.40;;;11.75;;
21519;SDS011;10921;53.614;9.882;2023-07-31T02:58:44;13.48;;;10.98;;
21519;SDS011;10921;53.614;9.882;2023-07-31T03:01:10;17.60;;;11.85;;
21519;SDS011;10921;53.614;9.882;2023-07-31T03:03:37;14.35;;;11.23;;
21519;SDS011;10921;53.614;9.882;2023-07-31T03:06:04;17.60;;;11.90;;
21519;SDS011;10921;53.614;9.882;2023-07-31T03:08:30;19.52;;;11.70;;
21519;SDS011;10921;53.614;9.882;2023-07-31T03:10:57;14.35;;;11.23;;
21519;SDS011;10921;53.614;9.882;2023-07-31T03:13:23;17.50;;;11.80;;
21519;SDS011;10921;53.614;9.882;2023-07-31T03:15:50;17.98;;;11.55;;
21519;SDS011;10921;53.614;9.882;2023-07-31T03:18:17;19.02;;;12.50;;
21519;SDS011;10921;53.614;9.882;2023-07-31T03:20:43;15.85;;;12.02;;
21519;SDS011;10921;53.614;9.882;2023-07-31T03:23:10;20.17;;;12.52;;
21519;SDS011;10921;53.614;9.882;2023-07-31T03:25:41;12.90;;;11.25;;
21519;SDS011;10921;53.614;9.882;2023-07-31T03:28:21;17.83;;;11.48;;
21519;SDS011;10921;53.614;9.882;2023-07-31T03:30:47;13.63;;;11.45;;
21519;SDS011;10921;53.614;9.882;2023-07-31T03:33:14;22.67;;;12.05;;
21519;SDS011;10921;53.614;9.882;2023-07-31T03:35:40;15.63;;;12.07;;
21519;SDS011;10921;53.614;9.882;2023-07-31T03:38:07;20.55;;;12.18;;
21519;SDS011;10921;53.614;9.882;2023-07-31T03:40:37;20.23;;;11.50;;
21519;SDS011;10921;53.614;9.882;2023-07-31T03:43:04;14.68;;;12.05;;
21519;SDS011;10921;53.614;9.882;2023-07-31T03:45:31;15.98;;;12.10;;
21519;SDS011;10921;53.614;9.882;2023-07-31T03:47:58;18.98;;;12.13;;
21519;SDS011;10921;53.614;9.882;2023-07-31T03:50:24;14.65;;;12.13;;
21519;SDS011;10921;53.614;9.882;2023-07-31T03:52:51;14.75;;;12.25;;
21519;SDS011;10921;53.614;9.882;2023-07-31T03:55:19;14.25;;;11.32;;
21519;SDS011;10921;53.614;9.882;2023-07-31T03:57:45;14.90;;;11.27;;
21519;SDS011;10921;53.614;9.882;2023-07-31T04:00:12;13.10;;;11.73;;
21519;SDS011;10921;53.614;9.882;2023-07-31T04:02:39;13.23;;;11.40;;
21519;SDS011;10921;53.614;9.882;2023-07-31T04:05:05;14.68;;;11.50;;
21519;SDS011;10921;53.614;9.882;2023-07-31T04:07:33;12.23;;;10.93;;
21519;SDS011;10921;53.614;9.882;2023-07-31T04:09:59;12.43;;;11.10;;
21519;SDS011;10921;53.614;9.882;2023-07-31T04:12:26;13.27;;;11.75;;
21519;SDS011;10921;53.614;9.882;2023-07-31T04:14:53;12.73;;;11.35;;
21519;SDS011;10921;53.614;9.882;2023-07-31T04:17:19;16.85;;;11.27;;
21519;SDS011;10921;53.614;9.882;2023-07-31T04:19:46;14.10;;;11.55;;
21519;SDS011;10921;53.614;9.882;2023-07-31T04:22:12;12.30;;;11.20;;
21519;SDS011;10921;53.614;9.882;2023-07-31T04:24:39;16.38;;;11.40;;
21519;SDS011;10921;53.614;9.882;2023-07-31T04:27:05;11.85;;;10.73;;
21519;SDS011;10921;53.614;9.882;2023-07-31T04:29:32;14.98;;;11.80;;
21519;SDS011;10921;53.614;9.882;2023-07-31T04:31:59;14.93;;;11.90;;
21519;SDS011;10921;53.614;9.882;2023-07-31T04:34:25;13.82;;;12.30;;
21519;SDS011;10921;53.614;9.882;2023-07-31T04:36:52;13.68;;;12.38;;
21519;SDS011;10921;53.614;9.882;2023-07-31T04:39:19;13.18;;;12.00;;
21519;SDS011;10921;53.614;9.882;2023-07-31T04:41:45;15.85;;;12.40;;
21519;SDS011;10921;53.614;9.882;2023-07-31T04:44:12;13.10;;;12.00;;
21519;SDS011;10921;53.614;9.882;2023-07-31T04:46:38;13.80;;;12.70;;
21519;SDS011;10921;53.614;9.882;2023-07-31T04:49:05;13.93;;;12.65;;
21519;SDS011;10921;53.614;9.882;2023-07-31T04:51:32;13.65;;;12.70;;
21519;SDS011;10921;53.614;9.882;2023-07-31T04:53:59;13.75;;;12.63;;
21519;SDS011;10921;53.614;9.882;2023-07-31T04:56:25;14.32;;;13.18;;
21519;SDS011;10921;53.614;9.882;2023-07-31T04:58:52;15.07;;;13.75;;
21519;SDS011;10921;53.614;9.882;2023-07-31T05:01:18;15.55;;;13.95;;
21519;SDS011;10921;53.614;9.882;2023-07-31T05:03:45;14.70;;;13.38;;
21519;SDS011;10921;53.614;9.882;2023-07-31T05:06:12;15.18;;;13.80;;
21519;SDS011;10921;53.614;9.882;2023-07-31T05:08:39;15.30;;;13.82;;
21519;SDS011;10921;53.614;9.882;2023-07-31T05:11:06;14.30;;;13.20;;
21519;SDS011;10921;53.614;9.882;2023-07-31T05:13:32;14.15;;;12.98;;
21519;SDS011;10921;53.614;9.882;2023-07-31T05:15:59;14.38;;;13.20;;
21519;SDS011;10921;53.614;9.882;2023-07-31T05:18:28;14.47;;;13.20;;
21519;SDS011;10921;53.614;9.882;2023-07-31T05:20:55;14.73;;;13.25;;
21519;SDS011;10921;53.614;9.882;2023-07-31T05:23:21;14.00;;;12.95;;
21519;SDS011;10921;53.614;9.882;2023-07-31T05:25:48;13.70;;;12.30;;
21519;SDS011;10921;53.614;9.882;2023-07-31T05:28:14;13.38;;;12.27;;
21519;SDS011;10921;53.614;9.882;2023-07-31T05:30:41;13.55;;;12.52;;
21519;SDS011;10921;53.614;9.882;2023-07-31T05:33:07;14.48;;;13.15;;
21519;SDS011;10921;53.614;9.882;2023-07-31T05:35:36;15.15;;;13.98;;
21519;SDS011;10921;53.614;9.882;2023-07-31T05:38:02;15.52;;;14.27;;
21519;SDS011;10921;53.614;9.882;2023-07-31T05:40:31;14.77;;;13.68;;
21519;SDS011;10921;53.614;9.882;2023-07-31T05:42:58;16.13;;;14.48;;
21519;SDS011;10921;53.614;9.882;2023-07-31T05:45:25;16.10;;;15.00;;
21519;SDS011;10921;53.614;9.882;2023-07-31T05:47:51;18.45;;;17.15;;
21519;SDS011;10921;53.614;9.882;2023-07-31T05:50:18;19.58;;;18.17;;
21519;SDS011;10921;53.614;9.882;2023-07-31T05:52:45;20.80;;;19.30;;
21519;SDS011;10921;53.614;9.882;2023-07-31T05:55:11;21.00;;;19.50;;
21519;SDS011;10921;53.614;9.882;2023-07-31T05:57:38;21.42;;;19.85;;
21519;SDS011;10921;53.614;9.882;2023-07-31T06:00:04;21.88;;;20.17;;
21519;SDS011;10921;53.614;9.882;2023-07-31T06:02:32;22.25;;;20.65;;
21519;SDS011;10921;53.614;9.882;2023-07-31T06:05:03;21.88;;;20.38;;
21519;SDS011;10921;53.614;9.882;2023-07-31T06:07:32;22.50;;;20.90;;
21519;SDS011;10921;53.614;9.882;2023-07-31T06:09:58;23.25;;;21.65;;
21519;SDS011;10921;53.614;9.882;2023-07-31T06:12:31;23.25;;;21.45;;
21519;SDS011;10921;53.614;9.882;2023-07-31T06:14:59;22.80;;;21.10;;
21519;SDS011;10921;53.614;9.882;2023-07-31T06:17:25;22.33;;;20.73;;
21519;SDS011;10921;53.614;9.882;2023-07-31T06:19:52;23.40;;;21.50;;
21519;SDS011;10921;53.614;9.882;2023-07-31T06:22:19;22.67;;;20.98;;
21519;SDS011;10921;53.614;9.882;2023-07-31T06:24:46;22.85;;;21.15;;
21519;SDS011;10921;53.614;9.882;2023-07-31T06:27:13;22.67;;;21.08;;
21519;SDS011;10921;53.614;9.882;2023-07-31T06:29:39;22.88;;;21.27;;
21519;SDS011;10921;53.614;9.882;2023-07-31T06:32:06;23.23;;;21.63;;
21519;SDS011;10921;53.614;9.882;2023-07-31T06:34:33;22.70;;;21.10;;
21519;SDS011;10921;53.614;9.882;2023-07-31T06:37:03;24.95;;;22.98;;
21519;SDS011;10921;53.614;9.882;2023-07-31T06:39:29;23.55;;;21.85;;
21519;SDS011;10921;53.614;9.882;2023-07-31T06:41:56;23.60;;;21.88;;
21519;SDS011;10921;53.614;9.882;2023-07-31T06:44:22;23.75;;;22.15;;
21519;SDS011;10921;53.614;9.882;2023-07-31T06:46:49;23.63;;;21.92;;
21519;SDS011;10921;53.614;9.882;2023-07-31T06:49:15;23.52;;;21.83;;
21519;SDS011;10921;53.614;9.882;2023-07-31T06:51:42;23.63;;;21.92;;
21519;SDS011;10921;53.614;9.882;2023-07-31T06:54:10;24.13;;;22.42;;
21519;SDS011;10921;53.614;9.882;2023-07-31T06:56:37;24.38;;;22.67;;
21519;SDS011;10921;53.614;9.882;2023-07-31T06:59:06;24.42;;;22.73;;
21519;SDS011;10921;53.614;9.882;2023-07-31T07:01:33;24.85;;;23.05;;
21519;SDS011;10921;53.614;9.882;2023-07-31T07:04:00;23.77;;;22.08;;
21519;SDS011;10921;53.614;9.882;2023-07-31T07:06:26;23.90;;;22.30;;
21519;SDS011;10921;53.614;9.882;2023-07-31T07:08:53;24.42;;;22.73;;
21519;SDS011;10921;53.614;9.882;2023-07-31T07:11:19;24.98;;;22.98;;
21519;SDS011;10921;53.614;9.882;2023-07-31T07:13:46;23.50;;;21.83;;
21519;SDS011;10921;53.614;9.882;2023-07-31T07:16:13;23.90;;;22.20;;
21519;SDS011;10921;53.614;9.882;2023-07-31T07:18:39;24.25;;;22.52;;
21519;SDS011;10921;53.614;9.882;2023-07-31T07:21:19;24.27;;;22.58;;
21519;SDS011;10921;53.614;9.882;2023-07-31T07:23:46;23.40;;;21.90;;
21519;SDS011;10921;53.614;9.882;2023-07-31T07:26:12;24.02;;;22.40;;
21519;SDS011;10921;53.614;9.882;2023-07-31T07:28:39;24.10;;;22.50;;
21519;SDS011;10921;53.614;9.882;2023-07-31T07:31:05;24.05;;;22.25;;
21519;SDS011;10921;53.614;9.882;2023-07-31T07:33:32;24.95;;;23.13;;
21519;SDS011;10921;53.614;9.882;2023-07-31T07:36:01;24.63;;;22.92;;
21519;SDS011;10921;53.614;9.882;2023-07-31T07:38:28;24.65;;;22.95;;
21519;SDS011;10921;53.614;9.882;2023-07-31T07:40:55;24.50;;;22.80;;
21519;SDS011;10921;53.614;9.882;2023-07-31T07:43:21;24.58;;;22.98;;
21519;SDS011;10921;53.614;9.882;2023-07-31T07:45:48;24.67;;;22.98;;
21519;SDS011;10921;53.614;9.882;2023-07-31T07:48:14;24.75;;;23.13;;
21519;SDS011;10921;53.614;9.882;2023-07-31T07:50:43;25.20;;;23.50;;
21519;SDS011;10921;53.614;9.882;2023-07-31T07:53:09;25.90;;;24.10;;
21519;SDS011;10921;53.614;9.882;2023-07-31T07:55:36;26.02;;;24.20;;
21519;SDS011;10921;53.614;9.882;2023-07-31T07:58:03;24.60;;;22.90;;
21519;SDS011;10921;53.614;9.882;2023-07-31T08:00:29;25.98;;;24.05;;
21519;SDS011;10921;53.614;9.882;2023-07-31T08:02:56;26.05;;;24.17;;
21519;SDS011;10921;53.614;9.882;2023-07-31T08:05:24;24.80;;;23.15;;
21519;SDS011;10921;53.614;9.882;2023-07-31T08:07:51;25.48;;;23.67;;
21519;SDS011;10921;53.614;9.882;2023-07-31T08:10:18;25.45;;;23.60;;
21519;SDS011;10921;53.614;9.882;2023-07-31T08:12:44;25.70;;;23.90;;
21519;SDS011;10921;53.614;9.882;2023-07-31T08:15:11;26.02;;;24.13;;
21519;SDS011;10921;53.614;9.882;2023-07-31T08:17:37;26.50;;;24.60;;
21519;SDS011;10921;53.614;9.882;2023-07-31T08:20:04;26.77;;;24.88;;
21519;SDS011;10921;53.614;9.882;2023-07-31T08:22:31;26.40;;;24.55;;
21519;SDS011;10921;53.614;9.882;2023-07-31T08:24:58;25.67;;;23.95;;
21519;SDS011;10921;53.614;9.882;2023-07-31T08:27:25;25.55;;;23.80;;
21519;SDS011;10921;53.614;9.882;2023-07-31T08:29:52;25.83;;;23.90;;
21519;SDS011;10921;53.614;9.882;2023-07-31T08:32:19;26.27;;;24.48;;
21519;SDS011;10921;53.614;9.882;2023-07-31T08:34:45;25.42;;;23.63;;
21519;SDS011;10921;53.614;9.882;2023-07-31T08:37:11;25.75;;;23.95;;
21519;SDS011;10921;53.614;9.882;2023-07-31T08:39:38;26.30;;;24.50;;
21519;SDS011;10921;53.614;9.882;2023-07-31T08:42:09;26.58;;;24.48;;
21519;SDS011;10921;53.614;9.882;2023-07-31T08:44:35;26.52;;;24.63;;
21519;SDS011;10921;53.614;9.882;2023-07-31T08:47:03;26.25;;;24.25;;
21519;SDS011;10921;53.614;9.882;2023-07-31T08:49:30;26.23;;;24.42;;
21519;SDS011;10921;53.614;9.882;2023-07-31T08:51:58;25.23;;;23.52;;
21519;SDS011;10921;53.614;9.882;2023-07-31T08:54:24;25.52;;;23.63;;
21519;SDS011;10921;53.614;9.882;2023-07-31T08:56:55;24.63;;;22.92;;
21519;SDS011;10921;53.614;9.882;2023-07-31T08:59:23;24.10;;;22.40;;
21519;SDS011;10921;53.614;9.882;2023-07-31T09:01:52;24.13;;;22.42;;
21519;SDS011;10921;53.614;9.882;2023-07-31T09:04:21;23.95;;;22.35;;
21519;SDS011;10921;53.614;9.882;2023-07-31T09:06:49;24.63;;;22.92;;
21519;SDS011;10921;53.614;9.882;2023-07-31T09:09:21;24.95;;;23.25;;
21519;SDS011;10921;53.614;9.882;2023-07-31T09:11:49;24.90;;;23.15;;
21519;SDS011;10921;53.614;9.882;2023-07-31T09:14:16;25.95;;;24.15;;
21519;SDS011;10921;53.614;9.882;2023-07-31T09:16:53;25.83;;;24.02;;
21519;SDS011;10921;53.614;9.882;2023-07-31T09:19:34;25.73;;;23.92;;
21519;SDS011;10921;53.614;9.882;2023-07-31T09:22:05;24.60;;;22.90;;
21519;SDS011;10921;53.614;9.882;2023-07-31T09:24:33;25.25;;;23.45;;
21519;SDS011;10921;53.614;9.882;2023-07-31T09:27:01;25.95;;;23.95;;
21519;SDS011;10921;53.614;9.882;2023-07-31T09:29:28;25.77;;;23.98;;
21519;SDS011;10921;53.614;9.882;2023-07-31T09:31:56;26.63;;;24.45;;
21519;SDS011;10921;53.614;9.882;2023-07-31T09:34:28;27.50;;;25.50;;
21519;SDS011;10921;53.614;9.882;2023-07-31T09:37:05;25.90;;;24.02;;
21519;SDS011;10921;53.614;9.882;2023-07-31T09:39:32;26.40;;;24.33;;
21519;SDS011;10921;53.614;9.882;2023-07-31T09:42:10;26.02;;;24.23;;
21519;SDS011;10921;53.614;9.882;2023-07-31T09:44:37;26.10;;;24.20;;
21519;SDS011;10921;53.614;9.882;2023-07-31T09:47:06;26.52;;;24.45;;
21519;SDS011;10921;53.614;9.882;2023-07-31T09:49:33;25.75;;;23.95;;
21519;SDS011;10921;53.614;9.882;2023-07-31T09:51:59;26.10;;;24.30;;
21519;SDS011;10921;53.614;9.882;2023-07-31T09:54:26;26.25;;;24.45;;
21519;SDS011;10921;53.614;9.882;2023-07-31T09:56:52;26.42;;;24.35;;
21519;SDS011;10921;53.614;9.882;2023-07-31T09:59:21;26.83;;;24.88;;
21519;SDS011;10921;53.614;9.882;2023-07-31T10:01:49;27.25;;;25.30;;
21519;SDS011;10921;53.614;9.882;2023-07-31T10:04:17;27.80;;;25.80;;
21519;SDS011;10921;53.614;9.882;2023-07-31T10:06:52;28.70;;;26.50;;
21519;SDS011;10921;53.614;9.882;2023-07-31T10:09:20;29.67;;;27.38;;
21519;SDS011;10921;53.614;9.882;2023-07-31T10:11:56;29.67;;;27.48;;
21519;SDS011;10921;53.614;9.882;2023-07-31T10:14:26;29.60;;;27.40;;
21519;SDS011;10921;53.614;9.882;2023-07-31T10:16:55;30.33;;;28.02;;
21519;SDS011;10921;53.614;9.882;2023-07-31T10:19:23;30.48;;;28.10;;
21519;SDS011;10921;53.614;9.882;2023-07-31T10:21:50;30.65;;;28.25;;
21519;SDS011;10921;53.614;9.882;2023-07-31T10:24:17;29.92;;;27.63;;
21519;SDS011;10921;53.614;9.882;2023-07-31T10:26:45;29.45;;;27.25;;
21519;SDS011;10921;53.614;9.882;2023-07-31T10:29:13;29.25;;;27.05;;
21519;SDS011;10921;53.614;9.882;2023-07-31T10:31:41;29.30;;;27.10;;
21519;SDS011;10921;53.614;9.882;2023-07-31T10:34:08;28.92;;;26.83;;
21519;SDS011;10921;53.614;9.882;2023-07-31T10:36:35;29.35;;;27.15;;
21519;SDS011;10921;53.614;9.882;2023-07-31T10:39:03;29.58;;;27.38;;
21519;SDS011;10921;53.614;9.882;2023-07-31T10:41:30;29.73;;;27.42;;
21519;SDS011;10921;53.614;9.882;2023-07-31T10:43:57;29.60;;;27.40;;
21519;SDS011;10921;53.614;9.882;2023-07-31T10:46:25;28.67;;;26.58;;
21519;SDS011;10921;53.614;9.882;2023-07-31T10:49:01;29.25;;;27.15;;
21519;SDS011;10921;53.614;9.882;2023-07-31T10:51:32;30.50;;;28.30;;
21519;SDS011;10921;53.614;9.882;2023-07-31T10:54:13;30.23;;;28.02;;
21519;SDS011;10921;53.614;9.882;2023-07-31T10:56:45;30.00;;;27.80;;
21519;SDS011;10921;53.614;9.882;2023-07-31T10:59:13;29.65;;;27.55;;
21519;SDS011;10921;53.614;9.882;2023-07-31T11:01:53;29.23;;;27.13;;
21519;SDS011;10921;53.614;9.882;2023-07-31T11:04:26;28.83;;;26.67;;
21519;SDS011;10921;53.614;9.882;2023-07-31T11:06:57;30.08;;;27.88;;
21519;SDS011;10921;53.614;9.882;2023-07-31T11:09:34;29.17;;;27.08;;
21519;SDS011;10921;53.614;9.882;2023-07-31T11:12:00;29.55;;;27.35;;
21519;SDS011;10921;53.614;9.882;2023-07-31T11:14:27;28.98;;;26.88;;
21519;SDS011;10921;53.614;9.882;2023-07-31T11:16:53;28.38;;;26.27;;
21519;SDS011;10921;53.614;9.882;2023-07-31T11:19:24;28.90;;;26.80;;
21519;SDS011;10921;53.614;9.882;2023-07-31T11:21:54;29.33;;;27.13;;
21519;SDS011;10921;53.614;9.882;2023-07-31T11:24:22;29.40;;;27.15;;
21519;SDS011;10921;53.614;9.882;2023-07-31T11:26:52;29.08;;;26.92;;
21519;SDS011;10921;53.614;9.882;2023-07-31T11:29:19;30.30;;;28.10;;
21519;SDS011;10921;53.614;9.882;2023-07-31T11:31:47;29.40;;;27.20;;
21519;SDS011;10921;53.614;9.882;2023-07-31T11:34:15;28.77;;;26.77;;
21519;SDS011;10921;53.614;9.882;2023-07-31T11:36:52;28.55;;;26.55;;
21519;SDS011;10921;53.614;9.882;2023-07-31T11:39:20;29.00;;;26.65;;
21519;SDS011;10921;53.614;9.882;2023-07-31T11:41:47;28.23;;;26.23;;
21519;SDS011;10921;53.614;9.882;2023-07-31T11:44:13;28.33;;;26.33;;
21519;SDS011;10921;53.614;9.882;2023-07-31T11:46:52;28.38;;;26.40;;
21519;SDS011;10921;53.614;9.882;2023-07-31T11:49:19;28.90;;;26.80;;
21519;SDS011;10921;53.614;9.882;2023-07-31T11:51:46;29.00;;;26.90;;
21519;SDS011;10921;53.614;9.882;2023-07-31T11:54:12;30.35;;;28.15;;
21519;SDS011;10921;53.614;9.882;2023-07-31T11:56:40;29.92;;;27.50;;
21519;SDS011;10921;53.614;9.882;2023-07-31T11:59:07;28.63;;;26.52;;
21519;SDS011;10921;53.614;9.882;2023-07-31T12:01:34;28.90;;;26.80;;
21519;SDS011;10921;53.614;9.882;2023-07-31T12:04:01;28.77;;;26.77;;
21519;SDS011;10921;53.614;9.882;2023-07-31T12:06:35;29.17;;;27.00;;
21519;SDS011;10921;53.614;9.882;2023-07-31T12:09:03;29.33;;;27.23;;
21519;SDS011;10921;53.614;9.882;2023-07-31T12:11:31;29.88;;;27.60;;
21519;SDS011;10921;53.614;9.882;2023-07-31T12:14:18;29.40;;;27.30;;
21519;SDS011;10921;53.614;9.882;2023-07-31T12:16:46;28.80;;;26.60;;
21519;SDS011;10921;53.614;9.882;2023-07-31T12:19:13;29.25;;;27.15;;
21519;SDS011;10921;53.614;9.882;2023-07-31T12:21:39;29.15;;;27.05;;
21519;SDS011;10921;53.614;9.882;2023-07-31T12:24:06;29.75;;;27.58;;
21519;SDS011;10921;53.614;9.882;2023-07-31T12:26:35;30.40;;;28.20;;
21519;SDS011;10921;53.614;9.882;2023-07-31T12:29:05;30.90;;;28.60;;
21519;SDS011;10921;53.614;9.882;2023-07-31T12:31:33;30.90;;;28.60;;
21519;SDS011;10921;53.614;9.882;2023-07-31T12:34:00;31.50;;;29.20;;
21519;SDS011;10921;53.614;9.882;2023-07-31T12:36:28;31.40;;;29.08;;
21519;SDS011;10921;53.614;9.882;2023-07-31T12:38:58;32.20;;;29.80;;
21519;SDS011;10921;53.614;9.882;2023-07-31T12:41:25;31.70;;;29.30;;
21519;SDS011;10921;53.614;9.882;2023-07-31T12:43:52;31.08;;;28.77;;
21519;SDS011;10921;53.614;9.882;2023-07-31T12:46:19;31.02;;;28.80;;
21519;SDS011;10921;53.614;9.882;2023-07-31T12:48:46;32.08;;;29.27;;
21519;SDS011;10921;53.614;9.882;2023-07-31T12:51:12;33.05;;;30.38;;
21519;SDS011;10921;53.614;9.882;2023-07-31T12:53:39;32.83;;;30.25;;
21519;SDS011;10921;53.614;9.882;2023-07-31T12:56:05;32.97;;;30.48;;
21519;SDS011;10921;53.614;9.882;2023-07-31T12:58:32;31.95;;;29.55;;
21519;SDS011;10921;53.614;9.882;2023-07-31T13:00:58;32.42;;;29.90;;
21519;SDS011;10921;53.614;9.882;2023-07-31T13:03:25;33.35;;;30.67;;
21519;SDS011;10921;53.614;9.882;2023-07-31T13:05:52;32.90;;;29.95;;
21519;SDS011;10921;53.614;9.882;2023-07-31T13:08:19;32.35;;;29.95;;
21519;SDS011;10921;53.614;9.882;2023-07-31T13:10:45;32.35;;;29.85;;
21519;SDS011;10921;53.614;9.882;2023-07-31T13:13:12;36.67;;;31.17;;
21519;SDS011;10921;53.614;9.882;2023-07-31T13:15:39;32.97;;;30.35;;
21519;SDS011;10921;53.614;9.882;2023-07-31T13:18:05;32.92;;;30.42;;
21519;SDS011;10921;53.614;9.882;2023-07-31T13:20:32;32.83;;;30.27;;
21519;SDS011;10921;53.614;9.882;2023-07-31T13:22:58;33.80;;;30.55;;
21519;SDS011;10921;53.614;9.882;2023-07-31T13:25:25;32.90;;;30.27;;
21519;SDS011;10921;53.614;9.882;2023-07-31T13:27:51;32.28;;;29.80;;
21519;SDS011;10921;53.614;9.882;2023-07-31T13:30:18;33.10;;;29.90;;
21519;SDS011;10921;53.614;9.882;2023-07-31T13:32:44;32.20;;;29.80;;
21519;SDS011;10921;53.614;9.882;2023-07-31T13:35:11;32.65;;;30.15;;
21519;SDS011;10921;53.614;9.882;2023-07-31T13:37:38;32.45;;;29.95;;
21519;SDS011;10921;53.614;9.882;2023-07-31T13:40:04;32.55;;;30.08;;
21519;SDS011;10921;53.614;9.882;2023-07-31T13:42:32;32.95;;;30.20;;
21519;SDS011;10921;53.614;9.882;2023-07-31T13:44:59;32.78;;;30.27;;
21519;SDS011;10921;53.614;9.882;2023-07-31T13:47:26;32.55;;;30.05;;
21519;SDS011;10921;53.614;9.882;2023-07-31T13:49:52;32.10;;;29.70;;
21519;SDS011;10921;53.614;9.882;2023-07-31T13:52:19;32.20;;;29.83;;
21519;SDS011;10921;53.614;9.882;2023-07-31T13:54:45;32.05;;;29.55;;
21519;SDS011;10921;53.614;9.882;2023-07-31T13:57:12;32.28;;;29.77;;
21519;SDS011;10921;53.614;9.882;2023-07-31T13:59:38;32.00;;;29.20;;
21519;SDS011;10921;53.614;9.882;2023-07-31T14:02:05;31.17;;;28.63;;
21519;SDS011;10921;53.614;9.882;2023-07-31T14:04:32;32.28;;;29.02;;
21519;SDS011;10921;53.614;9.882;2023-07-31T14:06:58;31.80;;;29.50;;
21519;SDS011;10921;53.614;9.882;2023-07-31T14:09:25;39.75;;;29.77;;
21519;SDS011;10921;53.614;9.882;2023-07-31T14:11:52;31.42;;;29.13;;
21519;SDS011;10921;53.614;9.882;2023-07-31T14:14:18;32.00;;;29.40;;
21519;SDS011;10921;53.614;9.882;2023-07-31T14:16:45;31.75;;;29.42;;
21519;SDS011;10921;53.614;9.882;2023-07-31T14:19:12;33.72;;;31.10;;
21519;SDS011;10921;53.614;9.882;2023-07-31T14:21:39;32.55;;;29.85;;
21519;SDS011;10921;53.614;9.882;2023-07-31T14:24:06;32.67;;;30.17;;
21519;SDS011;10921;53.614;9.882;2023-07-31T14:26:32;32.63;;;30.02;;
21519;SDS011;10921;53.614;9.882;2023-07-31T14:28:59;31.63;;;29.33;;
21519;SDS011;10921;53.614;9.882;2023-07-31T14:31:25;31.70;;;29.20;;